Time;durP1;ratioP1;P1;durP2;ratioP2;P2;SDS_P1;SDS_P2;PMS_P1;PMS_P2;Temp;Humidity;BMP_temperature;BMP_pressure;BME280_temperature;BME280_humidity;BME280_pressure;Samples;Min_cycle;Max_cycle;Signal;HPM_P1;HPM_P2
2023/06/16 00:01:02;;;;;;;10.02;7.75;;;15.80;99.90;;;;;;5033403;28;20050;-73
2023/06/16 00:03:33;;;;;;;11.18;8.70;;;15.70;99.90;;;;;;5032601;28;20099;-73
2023/06/16 00:06:03;;;;;;;12.68;9.18;;;15.70;99.90;;;;;;5033212;28;20045;-73
2023/06/16 00:08:31;;;;;;;12.38;9.18;;;15.70;99.90;;;;;;5032706;28;20041;-73
2023/06/16 00:10:58;;;;;;;10.23;8.77;;;15.70;99.90;;;;;;5015112;28;20053;-74
2023/06/16 00:13:25;;;;;;;11.70;8.30;;;15.70;99.90;;;;;;5032999;28;20547;-73
2023/06/16 00:15:52;;;;;;;11.27;8.00;;;15.70;99.90;;;;;;5014818;28;20053;-74
2023/06/16 00:18:20;;;;;;;8.90;7.18;;;15.60;99.90;;;;;;5032819;28;20057;-72
2023/06/16 00:20:51;;;;;;;9.40;7.68;;;15.60;99.90;;;;;;5015475;28;20400;-74
2023/06/16 00:23:22;;;;;;;11.27;8.20;;;15.60;99.90;;;;;;5032121;28;20123;-74
2023/06/16 00:25:49;;;;;;;11.63;8.15;;;15.60;99.90;;;;;;5014912;28;20052;-74
2023/06/16 00:28:16;;;;;;;9.75;7.28;;;15.50;99.90;;;;;;5015024;28;20095;-74
2023/06/16 00:30:44;;;;;;;10.95;7.78;;;15.50;99.90;;;;;;5031972;28;20045;-73
2023/06/16 00:33:12;;;;;;;10.00;8.05;;;15.50;99.90;;;;;;5032883;28;20457;-73
2023/06/16 00:35:40;;;;;;;9.52;8.07;;;15.50;99.90;;;;;;5013353;28;20140;-72
2023/06/16 00:38:07;;;;;;;10.80;7.70;;;15.50;99.90;;;;;;5014776;28;20081;-72
2023/06/16 00:40:35;;;;;;;10.07;7.07;;;15.40;99.90;;;;;;5032599;28;20056;-73
2023/06/16 00:43:02;;;;;;;10.85;7.60;;;15.40;99.90;;;;;;5032346;28;20050;-72
2023/06/16 00:45:29;;;;;;;15.93;8.20;;;15.40;99.90;;;;;;5014364;28;20045;-73
2023/06/16 00:47:57;;;;;;;9.65;7.78;;;15.40;99.90;;;;;;5037193;28;20049;-73
2023/06/16 00:50:24;;;;;;;9.05;6.90;;;15.40;99.90;;;;;;5024949;28;20045;-71
2023/06/16 00:52:51;;;;;;;10.05;7.53;;;15.40;99.90;;;;;;5018044;28;20053;-72
2023/06/16 00:55:21;;;;;;;10.38;8.00;;;15.40;99.90;;;;;;5032323;28;20046;-72
2023/06/16 00:57:50;;;;;;;10.10;8.38;;;15.40;99.90;;;;;;5031882;28;20077;-72
2023/06/16 01:00:18;;;;;;;11.65;9.20;;;15.40;99.90;;;;;;5032359;28;20481;-73
2023/06/16 01:02:45;;;;;;;11.00;9.05;;;15.40;99.90;;;;;;5032436;28;20056;-73
2023/06/16 01:05:20;;;;;;;10.45;8.57;;;15.40;99.90;;;;;;5029610;28;20089;-73
2023/06/16 01:07:55;;;;;;;14.60;9.27;;;15.40;99.90;;;;;;5030555;28;20052;-72
2023/06/16 01:10:30;;;;;;;13.43;8.48;;;15.30;99.90;;;;;;5032253;28;20037;-73
2023/06/16 01:13:07;;;;;;;10.63;8.95;;;15.30;99.90;;;;;;5014050;28;20092;-73
2023/06/16 01:15:35;;;;;;;9.25;7.70;;;15.30;99.90;;;;;;5032297;28;20049;-72
2023/06/16 01:18:03;;;;;;;11.50;8.43;;;15.20;99.90;;;;;;5014652;28;20512;-73
2023/06/16 01:20:39;;;;;;;9.02;7.75;;;15.20;99.90;;;;;;5013997;28;20045;-73
2023/06/16 01:23:16;;;;;;;9.63;8.00;;;15.20;99.90;;;;;;5034998;28;20563;-74
2023/06/16 01:25:45;;;;;;;9.52;8.30;;;15.10;99.90;;;;;;5018440;28;20092;-73
2023/06/16 01:28:19;;;;;;;9.98;7.88;;;15.10;99.90;;;;;;5035634;28;20095;-73
2023/06/16 01:30:50;;;;;;;11.65;8.60;;;15.00;99.90;;;;;;5034507;28;20074;-73
2023/06/16 01:33:19;;;;;;;11.38;8.35;;;15.00;99.90;;;;;;5035395;28;20124;-74
2023/06/16 01:35:47;;;;;;;11.95;8.55;;;15.00;99.90;;;;;;5036024;28;20467;-73
2023/06/16 01:38:18;;;;;;;11.25;7.90;;;15.00;99.90;;;;;;5036051;28;20046;-73
2023/06/16 01:40:48;;;;;;;11.88;9.50;;;14.90;99.90;;;;;;5000499;28;20049;-73
2023/06/16 01:43:16;;;;;;;11.63;8.65;;;14.90;99.90;;;;;;4998883;28;20050;-73
2023/06/16 01:45:46;;;;;;;10.25;8.25;;;14.80;99.90;;;;;;5034374;28;20050;-74
2023/06/16 01:48:13;;;;;;;11.18;8.57;;;14.80;99.90;;;;;;5035372;28;20053;-74
2023/06/16 01:50:41;;;;;;;19.02;9.48;;;14.70;99.90;;;;;;5035620;28;20099;-72
2023/06/16 01:53:08;;;;;;;13.82;9.32;;;14.70;99.90;;;;;;5016304;28;20103;-73
2023/06/16 01:55:35;;;;;;;11.48;9.23;;;14.70;99.90;;;;;;5017339;28;20049;-74
2023/06/16 01:58:03;;;;;;;11.20;9.73;;;14.60;99.90;;;;;;5018042;28;20106;-73
2023/06/16 02:00:36;;;;;;;10.85;8.70;;;14.60;99.90;;;;;;5017416;28;20057;-73
2023/06/16 02:03:08;;;;;;;11.18;9.60;;;14.50;99.90;;;;;;5017207;28;20129;-73
2023/06/16 02:05:36;;;;;;;14.30;8.85;;;14.50;99.90;;;;;;5017833;28;20053;-73
2023/06/16 02:08:05;;;;;;;11.70;9.55;;;14.40;99.90;;;;;;5032609;28;20091;-75
2023/06/16 02:10:32;;;;;;;14.13;9.68;;;14.40;99.90;;;;;;5017278;28;20100;-73
2023/06/16 02:12:59;;;;;;;11.32;8.75;;;14.40;99.90;;;;;;5017725;28;20762;-74
2023/06/16 02:15:28;;;;;;;12.23;9.05;;;14.40;99.90;;;;;;5034626;28;20469;-74
2023/06/16 02:17:57;;;;;;;11.95;9.15;;;14.30;99.90;;;;;;5035186;28;20390;-73
2023/06/16 02:20:25;;;;;;;14.07;10.25;;;14.30;99.90;;;;;;5017478;28;20037;-73
2023/06/16 02:22:52;;;;;;;13.50;9.68;;;14.30;99.90;;;;;;5019860;28;20478;-73
2023/06/16 02:25:20;;;;;;;15.48;10.50;;;14.20;99.90;;;;;;5034789;28;20096;-72
2023/06/16 02:27:47;;;;;;;13.70;10.30;;;14.20;99.90;;;;;;5033420;28;20072;-72
2023/06/16 02:30:15;;;;;;;15.90;10.23;;;14.20;99.90;;;;;;5034358;28;20042;-73
2023/06/16 02:32:47;;;;;;;16.85;11.18;;;14.20;99.90;;;;;;5033064;28;20119;-73
2023/06/16 02:35:14;;;;;;;15.85;11.48;;;14.10;99.90;;;;;;5032948;28;20469;-73
2023/06/16 02:37:41;;;;;;;14.35;9.75;;;14.00;99.90;;;;;;5035086;28;20049;-72
2023/06/16 02:40:09;;;;;;;14.60;10.85;;;14.00;99.90;;;;;;5038684;28;20124;-71
2023/06/16 02:42:36;;;;;;;14.55;10.93;;;14.00;99.90;;;;;;5039422;28;20053;-71
2023/06/16 02:45:04;;;;;;;14.52;10.60;;;14.00;99.90;;;;;;5034006;28;20056;-72
2023/06/16 02:47:30;;;;;;;12.88;11.02;;;14.00;99.90;;;;;;5034646;28;20428;-74
2023/06/16 02:49:59;;;;;;;15.75;11.48;;;14.00;99.90;;;;;;5035061;28;20440;-75
2023/06/16 02:52:26;;;;;;;15.85;11.05;;;13.90;99.90;;;;;;5034269;28;20053;-75
2023/06/16 02:54:53;;;;;;;13.55;11.40;;;13.90;99.90;;;;;;5034779;28;20111;-73
2023/06/16 02:57:20;;;;;;;14.55;11.40;;;13.90;99.90;;;;;;5033231;28;20496;-75
2023/06/16 02:59:48;;;;;;;14.43;10.05;;;13.90;99.90;;;;;;5027754;28;20081;-73
2023/06/16 03:02:15;;;;;;;15.55;10.52;;;14.20;99.90;;;;;;5030644;28;20063;-74
2023/06/16 03:04:42;;;;;;;14.00;11.25;;;14.40;99.90;;;;;;5031660;28;20045;-74
2023/06/16 03:07:11;;;;;;;14.00;10.10;;;14.50;99.90;;;;;;5031617;28;20060;-73
2023/06/16 03:09:37;;;;;;;18.20;11.13;;;14.70;99.90;;;;;;5033568;28;20046;-71
2023/06/16 03:12:05;;;;;;;16.58;10.85;;;14.80;99.90;;;;;;5032556;28;20129;-72
2023/06/16 03:14:32;;;;;;;14.85;10.70;;;15.10;99.90;;;;;;5032107;28;20085;-73
2023/06/16 03:17:00;;;;;;;12.98;9.13;;;15.10;99.90;;;;;;5029920;28;20164;-72
2023/06/16 03:19:27;;;;;;;15.85;10.68;;;15.50;99.90;;;;;;5031567;28;20057;-74
2023/06/16 03:21:54;;;;;;;15.27;11.93;;;15.50;99.90;;;;;;5032098;28;20072;-72
2023/06/16 03:24:22;;;;;;;15.95;11.55;;;15.70;99.90;;;;;;5033153;28;20065;-73
2023/06/16 03:26:49;;;;;;;18.35;12.73;;;15.80;99.90;;;;;;5014331;28;20049;-73
2023/06/16 03:29:15;;;;;;;17.25;12.15;;;15.80;99.90;;;;;;5015146;28;20091;-73
2023/06/16 03:31:42;;;;;;;19.42;14.25;;;15.70;99.90;;;;;;5015207;28;20107;-73
2023/06/16 03:34:09;;;;;;;14.93;11.75;;;15.70;99.90;;;;;;5015230;28;20046;-74
2023/06/16 03:36:38;;;;;;;18.15;14.10;;;15.60;99.90;;;;;;5033609;28;20045;-73
2023/06/16 03:39:06;;;;;;;16.85;13.25;;;15.70;99.90;;;;;;5015989;28;20119;-73
2023/06/16 03:41:35;;;;;;;15.80;13.20;;;15.80;99.90;;;;;;5036766;28;20111;-73
2023/06/16 03:44:03;;;;;;;25.85;13.80;;;15.90;99.90;;;;;;5029962;28;20069;-71
2023/06/16 03:46:31;;;;;;;18.10;14.07;;;16.00;99.90;;;;;;5028050;28;20060;-72
2023/06/16 03:48:58;;;;;;;15.95;11.98;;;15.90;99.90;;;;;;5053231;28;20033;-71
2023/06/16 03:51:25;;;;;;;14.98;12.27;;;15.90;99.90;;;;;;5037128;28;20057;-72
2023/06/16 03:53:52;;;;;;;18.10;13.43;;;15.90;99.90;;;;;;5034026;28;20053;-72
2023/06/16 03:56:19;;;;;;;18.25;13.52;;;15.90;99.90;;;;;;5052192;28;20045;-74
2023/06/16 03:58:49;;;;;;;16.67;11.90;;;15.90;99.90;;;;;;5050314;28;20056;-73
2023/06/16 04:01:16;;;;;;;16.17;13.07;;;15.90;99.90;;;;;;5033603;28;20041;-73
2023/06/16 04:03:46;;;;;;;17.05;12.57;;;16.00;99.90;;;;;;5031133;28;20304;-72
2023/06/16 04:06:15;;;;;;;17.10;12.68;;;16.00;99.90;;;;;;5034505;28;20053;-73
2023/06/16 04:08:41;;;;;;;17.02;14.15;;;16.20;99.90;;;;;;5052044;28;20076;-72
2023/06/16 04:11:08;;;;;;;13.52;11.88;;;16.20;99.90;;;;;;5051798;28;20045;-73
2023/06/16 04:13:35;;;;;;;13.25;9.93;;;16.30;99.90;;;;;;5049218;28;20054;-74
2023/06/16 04:16:04;;;;;;;15.55;13.02;;;16.40;99.90;;;;;;5043217;28;20077;-72
2023/06/16 04:18:30;;;;;;;19.77;14.93;;;16.50;99.90;;;;;;5031704;28;20127;-72
2023/06/16 04:20:57;;;;;;;20.23;16.60;;;16.40;99.90;;;;;;5015904;28;20046;-74
2023/06/16 04:23:24;;;;;;;21.48;15.52;;;16.50;99.90;;;;;;5049496;28;20101;-73
2023/06/16 04:25:52;;;;;;;18.45;16.10;;;16.60;99.90;;;;;;5049708;28;20056;-73
2023/06/16 04:28:22;;;;;;;27.30;19.02;;;16.60;99.90;;;;;;5026002;28;20050;-73
2023/06/16 04:30:50;;;;;;;19.15;16.92;;;16.70;99.90;;;;;;5032150;28;20134;-74
2023/06/16 04:33:22;;;;;;;18.92;16.83;;;17.00;99.90;;;;;;5019244;28;20056;-73
2023/06/16 04:35:50;;;;;;;25.85;18.58;;;16.90;99.90;;;;;;5022757;28;20076;-72
2023/06/16 04:38:17;;;;;;;26.15;18.27;;;16.80;99.90;;;;;;5018256;28;20099;-73
2023/06/16 04:40:44;;;;;;;24.35;20.40;;;16.80;99.90;;;;;;5011861;28;20096;-74
2023/06/16 04:43:11;;;;;;;25.85;21.40;;;16.70;99.90;;;;;;5028991;28;20100;-73
2023/06/16 04:45:38;;;;;;;24.52;19.60;;;16.70;99.90;;;;;;5013892;28;20053;-73
2023/06/16 04:48:05;;;;;;;24.90;20.05;;;16.60;99.90;;;;;;5031705;28;20053;-73
2023/06/16 04:50:33;;;;;;;25.55;20.98;;;16.50;99.90;;;;;;5012621;28;20389;-73
2023/06/16 04:53:03;;;;;;;23.98;19.92;;;16.40;99.90;;;;;;5029743;28;20049;-72
2023/06/16 04:55:30;;;;;;;27.52;20.40;;;16.40;99.90;;;;;;5029498;28;20053;-72
2023/06/16 04:57:56;;;;;;;23.60;19.85;;;16.40;99.90;;;;;;5032406;28;20493;-72
2023/06/16 05:00:27;;;;;;;26.27;19.73;;;16.40;99.90;;;;;;5016765;28;20485;-72
2023/06/16 05:02:54;;;;;;;24.35;19.60;;;16.50;99.90;;;;;;5013212;28;20060;-71
2023/06/16 05:05:21;;;;;;;21.80;18.13;;;16.60;99.90;;;;;;5014152;28;20184;-70
2023/06/16 05:07:50;;;;;;;24.73;19.63;;;16.60;99.90;;;;;;5018580;28;20103;-73
2023/06/16 05:10:17;;;;;;;22.85;18.73;;;16.70;99.90;;;;;;5035574;28;20444;-75
2023/06/16 05:12:44;;;;;;;23.08;18.75;;;16.80;99.90;;;;;;5036496;28;20095;-76
2023/06/16 05:15:11;;;;;;;20.35;16.75;;;16.90;99.90;;;;;;5034823;28;20123;-74
2023/06/16 05:17:38;;;;;;;20.65;17.75;;;17.10;99.90;;;;;;5018948;28;20053;-73
2023/06/16 05:20:06;;;;;;;18.30;16.05;;;17.30;99.90;;;;;;5019275;28;20045;-75
2023/06/16 05:22:33;;;;;;;19.92;16.30;;;17.40;99.90;;;;;;5035375;28;20127;-74
2023/06/16 05:25:01;;;;;;;21.67;16.02;;;17.60;99.90;;;;;;5036358;28;20055;-74
2023/06/16 05:27:28;;;;;;;18.48;16.05;;;17.80;99.90;;;;;;5054099;28;20072;-74
2023/06/16 05:29:56;;;;;;;20.23;16.13;;;18.00;99.90;;;;;;5032779;28;20072;-72
2023/06/16 05:32:23;;;;;;;18.75;15.48;;;18.20;99.90;;;;;;5038780;28;20296;-74
2023/06/16 05:34:51;;;;;;;17.73;14.98;;;18.40;99.90;;;;;;5057492;28;20045;-73
2023/06/16 05:37:20;;;;;;;19.48;14.98;;;18.60;99.90;;;;;;5038130;28;20068;-74
2023/06/16 05:39:47;;;;;;;15.68;14.05;;;18.70;99.90;;;;;;5038436;28;20057;-73
2023/06/16 05:42:16;;;;;;;16.08;13.50;;;18.90;99.90;;;;;;5034948;28;20076;-72
2023/06/16 05:44:44;;;;;;;16.25;13.50;;;19.10;99.90;;;;;;5035673;28;20064;-72
2023/06/16 05:47:11;;;;;;;15.98;12.95;;;19.20;99.90;;;;;;5052851;28;20050;-71
2023/06/16 05:49:39;;;;;;;14.35;10.77;;;19.40;99.90;;;;;;5053143;28;20053;-73
2023/06/16 05:52:06;;;;;;;14.50;10.77;;;19.60;99.90;;;;;;5050971;28;20045;-72
2023/06/16 05:54:33;;;;;;;19.98;10.75;;;19.80;99.90;;;;;;5053238;28;20049;-70
2023/06/16 05:57:00;;;;;;;12.07;10.73;;;19.80;99.90;;;;;;5052086;28;20432;-72
2023/06/16 05:59:29;;;;;;;21.77;11.25;;;20.00;99.90;;;;;;5055273;28;20053;-73
2023/06/16 06:01:57;;;;;;;13.68;9.80;;;20.10;99.90;;;;;;5049184;28;20037;-73
2023/06/16 06:04:28;;;;;;;13.23;9.50;;;20.20;99.90;;;;;;5031929;28;20049;-70
2023/06/16 06:06:56;;;;;;;15.13;10.70;;;20.30;99.90;;;;;;5038560;28;20562;-73
2023/06/16 06:09:23;;;;;;;10.50;8.95;;;20.50;99.90;;;;;;5026250;28;20127;-71
2023/06/16 06:11:50;;;;;;;13.43;9.65;;;20.70;99.90;;;;;;5044163;28;20038;-71
2023/06/16 06:14:17;;;;;;;14.27;10.38;;;20.90;99.90;;;;;;5040540;28;20489;-73
2023/06/16 06:16:46;;;;;;;13.00;9.48;;;20.90;99.90;;;;;;5029074;28;20053;-70
2023/06/16 06:19:13;;;;;;;11.88;8.50;;;21.20;99.90;;;;;;5056414;28;20045;-70
2023/06/16 06:21:39;;;;;;;14.07;9.95;;;21.30;99.90;;;;;;5055460;28;20391;-71
2023/06/16 06:24:07;;;;;;;11.70;8.57;;;21.40;99.90;;;;;;5055459;28;20053;-74
2023/06/16 06:26:34;;;;;;;12.10;8.82;;;21.50;99.90;;;;;;5018188;28;20045;-73
2023/06/16 06:29:01;;;;;;;12.15;8.27;;;21.60;99.90;;;;;;5045779;28;20099;-71
2023/06/16 06:31:28;;;;;;;10.27;8.13;;;21.70;99.90;;;;;;5055883;28;20046;-73
2023/06/16 06:33:56;;;;;;;11.05;8.23;;;21.90;99.90;;;;;;5035896;28;20057;-74
2023/06/16 06:36:25;;;;;;;11.70;7.85;;;22.10;99.90;;;;;;5031294;28;20083;-75
2023/06/16 06:38:52;;;;;;;9.70;7.70;;;22.20;99.90;;;;;;5034885;28;20029;-73
2023/06/16 06:41:19;;;;;;;9.35;8.05;;;22.40;99.90;;;;;;5040315;28;20050;-73
2023/06/16 06:43:47;;;;;;;9.77;8.15;;;22.50;99.90;;;;;;5049553;28;20056;-74
2023/06/16 06:46:16;;;;;;;10.07;7.45;;;22.70;99.90;;;;;;5034401;28;20053;-71
2023/06/16 06:48:45;;;;;;;13.20;8.88;;;22.80;99.90;;;;;;5051075;28;20049;-72
2023/06/16 06:51:15;;;;;;;7.00;5.30;;;23.10;99.90;;;;;;5027462;28;20082;-71
2023/06/16 06:53:43;;;;;;;9.82;7.38;;;23.30;99.90;;;;;;5019867;28;20080;-72
2023/06/16 06:56:10;;;;;;;10.02;7.15;;;23.50;99.90;;;;;;5019150;28;20103;-73
2023/06/16 06:58:37;;;;;;;8.55;6.40;;;23.90;99.90;;;;;;5012755;28;20053;-72
2023/06/16 07:01:03;;;;;;;8.38;7.35;;;24.00;99.90;;;;;;5014920;28;20045;-74
2023/06/16 07:03:30;;;;;;;11.40;7.25;;;24.10;99.90;;;;;;5030326;28;20057;-73
2023/06/16 07:05:57;;;;;;;10.20;7.55;;;24.30;99.90;;;;;;5014106;28;20050;-73
2023/06/16 07:08:26;;;;;;;10.68;7.20;;;24.60;99.90;;;;;;5014010;28;20107;-73
2023/06/16 07:10:53;;;;;;;8.68;6.30;;;24.40;99.90;;;;;;5027603;28;20160;-72
2023/06/16 07:13:20;;;;;;;10.18;6.38;;;24.60;99.90;;;;;;5028653;28;20042;-73
2023/06/16 07:15:46;;;;;;;7.05;4.88;;;24.90;99.90;;;;;;5030101;28;20045;-73
2023/06/16 07:18:17;;;;;;;6.97;5.15;;;25.20;99.90;;;;;;5006352;28;20080;-73
2023/06/16 07:20:43;;;;;;;;;;;25.40;99.60;;;;;;5028498;28;20045;-75
2023/06/16 07:23:16;;;;;;;8.27;5.38;;;25.50;98.20;;;;;;5026788;28;19921;-73
2023/06/16 07:25:44;;;;;;;7.20;5.22;;;25.90;98.40;;;;;;5031540;28;20081;-73
2023/06/16 07:28:11;;;;;;;9.68;5.30;;;26.20;97.80;;;;;;5010372;28;20092;-73
2023/06/16 07:30:38;;;;;;;12.18;5.78;;;26.50;97.80;;;;;;5012565;28;20095;-73
2023/06/16 07:33:05;;;;;;;11.13;5.35;;;26.90;97.20;;;;;;5029559;28;20041;-75
2023/06/16 07:35:32;;;;;;;9.10;4.97;;;26.80;96.70;;;;;;5029191;28;20120;-74
2023/06/16 07:37:59;;;;;;;8.15;4.57;;;27.10;96.60;;;;;;5032211;28;20049;-73
2023/06/16 07:40:26;;;;;;;9.10;5.32;;;27.50;96.60;;;;;;5028095;28;20050;-74
2023/06/16 07:42:54;;;;;;;7.00;4.00;;;27.20;95.90;;;;;;5030701;28;20049;-74
2023/06/16 07:45:21;;;;;;;6.72;4.72;;;27.40;95.90;;;;;;5028267;28;20397;-73
2023/06/16 07:47:48;;;;;;;5.97;4.80;;;27.50;95.50;;;;;;5026611;28;20052;-74
2023/06/16 07:50:15;;;;;;;7.28;5.03;;;27.70;94.60;;;;;;5027101;28;20093;-74
2023/06/16 07:52:42;;;;;;;5.70;3.67;;;27.70;94.40;;;;;;5024620;28;20379;-74
2023/06/16 07:55:10;;;;;;;8.55;4.47;;;27.90;94.20;;;;;;5017912;28;20046;-73
2023/06/16 07:57:38;;;;;;;6.32;4.20;;;28.20;93.60;;;;;;5027158;28;20118;-73
2023/06/16 08:00:11;;;;;;;6.07;4.03;;;28.30;93.00;;;;;;5025227;28;20107;-73
2023/06/16 08:02:39;;;;;;;4.55;3.35;;;28.80;92.40;;;;;;5031673;28;20056;-73
2023/06/16 08:05:07;;;;;;;5.95;3.80;;;28.80;91.90;;;;;;5014699;28;20471;-74
2023/06/16 08:07:35;;;;;;;6.20;3.60;;;28.90;91.20;;;;;;5015210;28;20092;-75
2023/06/16 08:10:02;;;;;;;3.75;2.42;;;28.80;90.70;;;;;;5032942;28;20049;-74
2023/06/16 08:12:29;;;;;;;3.60;2.30;;;29.00;85.90;;;;;;5015385;28;20038;-74
2023/06/16 08:14:56;;;;;;;4.72;2.40;;;28.90;79.60;;;;;;5014914;28;20152;-74
2023/06/16 08:17:25;;;;;;;3.03;2.20;;;29.20;77.50;;;;;;5015436;28;20053;-74
2023/06/16 08:19:52;;;;;;;4.05;2.20;;;29.40;75.30;;;;;;5020575;28;20108;-74
2023/06/16 08:22:19;;;;;;;6.32;2.95;;;29.60;75.10;;;;;;5043523;28;20053;-75
2023/06/16 08:24:46;;;;;;;4.88;2.40;;;29.90;74.20;;;;;;5018800;28;20048;-75
2023/06/16 08:27:14;;;;;;;5.15;2.30;;;30.10;74.50;;;;;;5015214;28;20067;-74
2023/06/16 08:29:41;;;;;;;5.50;2.00;;;30.30;73.90;;;;;;5014669;28;20045;-74
2023/06/16 08:32:08;;;;;;;7.40;1.85;;;30.40;72.20;;;;;;5015149;28;20339;-74
2023/06/16 08:34:36;;;;;;;12.43;2.47;;;30.70;71.50;;;;;;5013571;28;20451;-75
2023/06/16 08:37:04;;;;;;;3.95;2.40;;;30.90;68.70;;;;;;5032461;28;20267;-74
2023/06/16 08:39:31;;;;;;;6.53;2.53;;;30.90;66.80;;;;;;5032759;28;20049;-74
2023/06/16 08:42:00;;;;;;;5.13;2.70;;;31.00;66.50;;;;;;5032538;28;20445;-75
2023/06/16 08:44:27;;;;;;;5.97;2.40;;;31.10;66.80;;;;;;5030236;28;20148;-74
2023/06/16 08:46:56;;;;;;;4.30;2.10;;;31.30;66.80;;;;;;5010053;28;20066;-75
2023/06/16 08:49:23;;;;;;;5.32;2.30;;;31.30;66.20;;;;;;5012332;28;20176;-75
2023/06/16 08:51:53;;;;;;;4.45;2.13;;;30.90;65.40;;;;;;5032185;28;20091;-75
2023/06/16 08:54:21;;;;;;;5.13;2.60;;;30.30;65.90;;;;;;5010541;28;20136;-75
2023/06/16 08:56:51;;;;;;;5.13;2.15;;;30.20;66.60;;;;;;5013849;28;20045;-75
2023/06/16 08:59:20;;;;;;;4.50;2.15;;;30.30;66.30;;;;;;4992631;28;20132;-74
2023/06/16 09:01:47;;;;;;;;;;;30.60;66.30;;;;;;5030889;28;20077;-75
2023/06/16 09:04:17;;;;;;;7.00;1.90;;;29.90;65.60;;;;;;5012066;28;19925;-75
2023/06/16 09:06:45;;;;;;;3.08;1.80;;;30.50;67.20;;;;;;5031786;28;20049;-77
2023/06/16 09:09:14;;;;;;;5.13;1.93;;;30.80;67.30;;;;;;5031749;28;20404;-76
2023/06/16 09:11:41;;;;;;;8.05;2.00;;;30.80;67.10;;;;;;5031532;28;20052;-75
2023/06/16 09:14:16;;;;;;;4.75;1.95;;;31.20;67.10;;;;;;5030424;28;20103;-75
2023/06/16 09:16:56;;;;;;;3.85;1.85;;;31.40;67.30;;;;;;5031139;28;20437;-75
2023/06/16 09:19:23;;;;;;;4.78;1.85;;;31.40;66.00;;;;;;5012001;28;20111;-75
2023/06/16 09:21:55;;;;;;;5.13;1.92;;;31.70;67.20;;;;;;5013786;28;20045;-75
2023/06/16 09:24:27;;;;;;;5.22;1.80;;;31.70;64.80;;;;;;5026918;28;20057;-75
2023/06/16 09:26:59;;;;;;;17.98;3.38;;;31.80;66.10;;;;;;5029594;28;20085;-75
2023/06/16 09:29:28;;;;;;;9.02;2.20;;;31.70;65.10;;;;;;5031929;28;20056;-75
2023/06/16 09:32:06;;;;;;;8.30;2.00;;;31.70;66.30;;;;;;5028456;28;20045;-76
2023/06/16 09:34:33;;;;;;;6.45;1.77;;;32.00;66.70;;;;;;5031161;28;20057;-76
2023/06/16 09:37:00;;;;;;;6.07;2.13;;;32.00;66.30;;;;;;5030887;28;20068;-75
2023/06/16 09:39:28;;;;;;;2.80;1.95;;;32.10;66.20;;;;;;5029719;28;20084;-74
2023/06/16 09:41:56;;;;;;;4.13;2.03;;;31.80;65.50;;;;;;5029828;28;20179;-75
2023/06/16 09:44:24;;;;;;;3.63;1.83;;;31.40;65.60;;;;;;5035102;28;20444;-73
2023/06/16 09:46:51;;;;;;;3.23;1.60;;;31.80;65.60;;;;;;5034193;28;20053;-76
2023/06/16 09:49:22;;;;;;;2.85;1.92;;;31.90;66.30;;;;;;5035128;28;20057;-74
2023/06/16 09:51:53;;;;;;;6.68;1.88;;;32.60;65.00;;;;;;5035571;28;20144;-75
2023/06/16 09:54:21;;;;;;;3.63;1.48;;;32.60;64.50;;;;;;5032361;28;20045;-76
2023/06/16 09:56:50;;;;;;;3.47;1.90;;;32.70;64.70;;;;;;5035339;28;20408;-77
2023/06/16 09:59:18;;;;;;;;;;;32.90;64.20;;;;;;5034496;28;20053;-75
2023/06/16 10:01:47;;;;;;;5.90;1.60;;;32.60;62.50;;;;;;5033814;28;19921;-75
2023/06/16 10:04:16;;;;;;;3.13;1.63;;;32.70;64.10;;;;;;5036177;28;20049;-75
2023/06/16 10:06:49;;;;;;;5.03;1.80;;;33.00;63.70;;;;;;5041140;28;20054;-75
2023/06/16 10:09:18;;;;;;;5.00;1.60;;;32.40;62.10;;;;;;5041591;28;20049;-76
2023/06/16 10:11:49;;;;;;;3.47;1.60;;;32.20;62.80;;;;;;5041875;28;20080;-77
2023/06/16 10:14:19;;;;;;;2.70;1.52;;;32.30;62.70;;;;;;5039495;28;20045;-76
2023/06/16 10:16:50;;;;;;;3.40;1.70;;;32.50;61.70;;;;;;5035984;28;20049;-76
2023/06/16 10:19:20;;;;;;;3.38;1.80;;;32.60;61.30;;;;;;5034942;28;20077;-75
2023/06/16 10:21:48;;;;;;;5.40;1.40;;;33.00;61.40;;;;;;5034588;28;20420;-75
2023/06/16 10:24:16;;;;;;;2.78;1.70;;;33.30;60.30;;;;;;5032149;28;20107;-76
2023/06/16 10:26:44;;;;;;;3.15;1.73;;;33.40;59.80;;;;;;5000499;28;20093;-75
2023/06/16 10:29:17;;;;;;;5.85;1.88;;;33.50;59.50;;;;;;5023361;28;20053;-75
2023/06/16 10:31:45;;;;;;;4.43;1.90;;;33.50;59.40;;;;;;5033507;28;20050;-76
2023/06/16 10:34:19;;;;;;;5.03;1.83;;;33.70;59.50;;;;;;5034691;28;20112;-74
2023/06/16 10:36:49;;;;;;;2.90;1.70;;;33.70;58.90;;;;;;5030854;28;20045;-75
2023/06/16 10:39:16;;;;;;;3.90;1.80;;;33.50;58.50;;;;;;5031310;28;20140;-75
2023/06/16 10:41:51;;;;;;;4.15;1.63;;;33.50;58.70;;;;;;5032952;28;20056;-75
2023/06/16 10:44:24;;;;;;;4.88;1.80;;;34.00;58.30;;;;;;5032011;28;20405;-76
2023/06/16 10:47:36;;;;;;;5.30;1.60;;;33.80;56.80;;;;;;5032035;28;20057;-73
2023/06/16 10:50:04;;;;;;;3.80;1.88;;;34.20;58.40;;;;;;5013152;28;20497;-74
2023/06/16 10:52:35;;;;;;;10.82;2.47;;;34.40;58.90;;;;;;5031601;28;20124;-75
2023/06/16 10:55:18;;;;;;;4.03;1.88;;;34.10;57.90;;;;;;5027073;28;20057;-75
2023/06/16 10:57:46;;;;;;;5.13;1.70;;;34.20;57.10;;;;;;5048516;28;20068;-75
2023/06/16 11:00:16;;;;;;;3.55;1.73;;;34.10;57.90;;;;;;5031231;28;20060;-73
2023/06/16 11:02:51;;;;;;;4.15;1.70;;;34.10;57.70;;;;;;5034036;28;20050;-75
2023/06/16 11:05:21;;;;;;;2.85;1.48;;;34.00;57.50;;;;;;5032434;28;20049;-77
2023/06/16 11:08:15;;;;;;;2.97;1.60;;;34.00;57.40;;;;;;5032981;28;20485;-76
2023/06/16 11:10:49;;;;;;;4.05;1.50;;;34.00;56.10;;;;;;5032257;28;20045;-76
2023/06/16 11:13:17;;;;;;;2.97;1.58;;;34.00;56.60;;;;;;5032030;28;20045;-77
2023/06/16 11:15:46;;;;;;;6.13;1.67;;;33.80;56.20;;;;;;5032056;28;20053;-74
2023/06/16 11:18:16;;;;;;;2.95;1.58;;;34.10;56.30;;;;;;5031529;28;20053;-75
2023/06/16 11:20:43;;;;;;;6.20;1.63;;;34.10;56.10;;;;;;5031840;28;20074;-75
2023/06/16 11:23:11;;;;;;;2.75;1.55;;;34.00;56.10;;;;;;5031674;28;20140;-74
2023/06/16 11:25:38;;;;;;;4.05;1.85;;;34.00;56.30;;;;;;5033164;28;20045;-75
2023/06/16 11:28:06;;;;;;;3.10;1.83;;;33.70;56.10;;;;;;5032316;28;20056;-74
2023/06/16 11:30:36;;;;;;;6.03;1.40;;;33.90;56.60;;;;;;5032308;28;20394;-75
2023/06/16 11:33:06;;;;;;;8.68;2.08;;;34.10;57.00;;;;;;5029652;28;20052;-75
2023/06/16 11:35:34;;;;;;;4.18;1.60;;;34.00;57.20;;;;;;5032427;28;20079;-76
2023/06/16 11:38:01;;;;;;;6.13;2.20;;;34.10;57.00;;;;;;5030353;28;20099;-74
2023/06/16 11:40:30;;;;;;;3.90;1.98;;;34.00;57.30;;;;;;5032208;28;20045;-74
2023/06/16 11:42:58;;;;;;;7.63;1.50;;;34.30;57.60;;;;;;5032050;28;20116;-73
2023/06/16 11:45:28;;;;;;;3.67;1.50;;;33.90;57.30;;;;;;5030754;28;20469;-75
2023/06/16 11:47:55;;;;;;;3.75;1.80;;;34.10;57.40;;;;;;5030898;28;20049;-75
2023/06/16 11:50:24;;;;;;;7.72;1.80;;;34.30;57.10;;;;;;5031627;28;20045;-75
2023/06/16 11:52:52;;;;;;;2.67;1.45;;;34.00;55.60;;;;;;5029614;28;20088;-74
2023/06/16 11:55:19;;;;;;;2.30;1.50;;;33.90;56.20;;;;;;5033488;28;20056;-74
2023/06/16 11:57:46;;;;;;;2.25;1.38;;;33.90;56.00;;;;;;5031151;28;20041;-73
2023/06/16 12:00:15;;;;;;;4.70;1.50;;;34.00;56.00;;;;;;5031885;28;20477;-75
2023/06/16 12:02:48;;;;;;;3.95;1.55;;;34.10;55.70;;;;;;5031770;28;20103;-75
2023/06/16 12:05:21;;;;;;;6.97;2.35;;;34.30;56.00;;;;;;5035695;28;20662;-76
2023/06/16 12:07:50;;;;;;;7.60;1.85;;;34.40;55.50;;;;;;5032278;28;20065;-75
2023/06/16 12:10:16;;;;;;;;;;;34.30;54.70;;;;;;5029587;28;20482;-74
2023/06/16 12:12:47;;;;;;;4.38;1.92;;;34.10;54.70;;;;;;5031546;28;20392;-74
2023/06/16 12:15:16;;;;;;;5.13;1.95;;;33.90;55.20;;;;;;5027441;28;20582;-75
2023/06/16 12:17:47;;;;;;;;;;;34.20;55.60;;;;;;5030811;28;20512;-73
2023/06/16 12:20:18;;;;;;;5.57;1.73;;;34.10;54.80;;;;;;5031760;28;19921;-74
2023/06/16 12:22:46;;;;;;;3.95;1.85;;;34.10;55.50;;;;;;5031470;28;20046;-74
2023/06/16 12:25:16;;;;;;;4.30;1.63;;;33.90;55.80;;;;;;5023047;28;20046;-75
2023/06/16 12:27:49;;;;;;;2.78;1.60;;;34.00;56.50;;;;;;5029590;28;20458;-74
2023/06/16 12:30:17;;;;;;;2.72;1.70;;;34.20;57.30;;;;;;5028102;28;20511;-75
2023/06/16 12:32:47;;;;;;;4.68;1.73;;;34.40;57.10;;;;;;5022770;28;20099;-75
2023/06/16 12:35:25;;;;;;;2.65;1.50;;;33.80;56.20;;;;;;5028710;28;20045;-76
2023/06/16 12:37:52;;;;;;;3.50;1.67;;;34.00;56.20;;;;;;5023086;28;20053;-76
2023/06/16 12:40:29;;;;;;;2.92;1.90;;;33.90;55.80;;;;;;5023667;28;20049;-76
2023/06/16 12:42:56;;;;;;;5.13;1.80;;;33.90;54.50;;;;;;5020459;28;20115;-76
2023/06/16 12:45:22;;;;;;;2.58;1.52;;;33.90;55.00;;;;;;5019077;28;20096;-75
2023/06/16 12:47:49;;;;;;;7.85;1.98;;;34.20;55.60;;;;;;5025201;28;20045;-75